createdAt,value
2022-10-05T00:00:59.504Z,11.68
2022-10-05T00:03:27.297Z,11.43
2022-10-05T00:05:53.579Z,14.50
2022-10-05T00:08:24.001Z,11.90
2022-10-05T00:10:50.842Z,9.07
2022-10-05T00:13:24.632Z,14.38
2022-10-05T00:15:52.847Z,11.00
2022-10-05T00:18:20.258Z,10.23
2022-10-05T00:20:47.062Z,12.13
2022-10-05T00:23:21.289Z,9.98
2022-10-05T00:25:47.602Z,9.20
2022-10-05T00:28:18.505Z,10.93
2022-10-05T00:30:44.831Z,8.27
2022-10-05T00:33:11.052Z,6.43
2022-10-05T00:35:37.359Z,8.68
2022-10-05T00:38:03.579Z,12.27
2022-10-05T00:40:50.084Z,7.35
2022-10-05T00:43:25.996Z,8.38
2022-10-05T00:45:55.602Z,10.25
2022-10-05T00:48:24.880Z,11.15
2022-10-05T00:51:01.127Z,8.13
2022-10-05T00:53:35.343Z,8.48
2022-10-05T00:56:09.891Z,13.38
2022-10-05T00:58:45.538Z,10.20
2022-10-05T01:01:16.610Z,7.53
2022-10-05T01:03:42.885Z,12.57
2022-10-05T01:06:12.233Z,11.80
2022-10-05T01:08:38.448Z,10.57
2022-10-05T01:11:04.679Z,10.32
2022-10-05T01:13:36.920Z,9.18
2022-10-05T01:16:04.154Z,12.05
2022-10-05T01:18:44.600Z,7.70
2022-10-05T01:21:18.095Z,9.80
2022-10-05T01:24:02.960Z,14.02
2022-10-05T01:26:38.294Z,13.23
2022-10-05T01:29:10.668Z,11.68
2022-10-05T01:31:44.009Z,10.38
2022-10-05T01:34:16.792Z,15.25
2022-10-05T01:37:01.839Z,12.65
2022-10-05T01:39:28.030Z,11.27
2022-10-05T01:41:59.711Z,12.30
2022-10-05T01:44:49.367Z,9.05
2022-10-05T01:47:25.736Z,11.02
2022-10-05T01:49:57.719Z,12.52
2022-10-05T01:52:51.920Z,12.65
2022-10-05T01:55:21.055Z,11.77
2022-10-05T01:58:02.604Z,11.05
2022-10-05T02:00:29.634Z,10.82
2022-10-05T02:03:06.015Z,13.93
2022-10-05T02:05:38.893Z,14.57
2022-10-05T02:08:14.397Z,12.20
2022-10-05T02:10:43.594Z,10.02
2022-10-05T02:13:15.564Z,14.20
2022-10-05T02:15:46.084Z,10.88
2022-10-05T02:18:14.283Z,13.35
2022-10-05T02:20:42.232Z,16.10
2022-10-05T02:23:10.929Z,9.70
2022-10-05T02:25:39.242Z,15.63
2022-10-05T02:28:08.290Z,15.52
2022-10-05T02:30:38.787Z,11.90
2022-10-05T02:33:08.329Z,10.55
2022-10-05T02:35:34.698Z,12.25
2022-10-05T02:38:09.162Z,15.07
2022-10-05T02:40:53.633Z,11.18
2022-10-05T02:43:40.055Z,13.65
2022-10-05T02:46:23.987Z,11.40
2022-10-05T02:49:08.817Z,14.35
2022-10-05T02:51:51.046Z,11.32
2022-10-05T02:54:36.033Z,10.85
2022-10-05T02:57:02.230Z,13.30
2022-10-05T02:59:37.957Z,13.77
2022-10-05T03:02:19.241Z,15.55
2022-10-05T03:04:48.304Z,13.43
2022-10-05T03:07:21.117Z,13.20
2022-10-05T03:10:01.036Z,12.93
2022-10-05T03:12:40.296Z,10.95
2022-10-05T03:15:15.493Z,12.18
2022-10-05T03:18:08.946Z,10.93
2022-10-05T03:20:48.438Z,13.13
2022-10-05T03:23:43.296Z,13.90
2022-10-05T03:26:22.623Z,11.85
2022-10-05T03:29:00.161Z,17.05
2022-10-05T03:31:52.859Z,11.20
2022-10-05T03:34:29.922Z,16.15
2022-10-05T03:37:02.539Z,10.60
2022-10-05T03:40:01.291Z,15.63
2022-10-05T03:42:33.015Z,17.52
2022-10-05T03:45:17.863Z,14.82
2022-10-05T03:47:50.082Z,15.20
2022-10-05T03:50:23.000Z,12.45
2022-10-05T03:52:56.221Z,11.65
2022-10-05T03:55:22.430Z,11.82
2022-10-05T03:57:49.842Z,12.25
2022-10-05T04:00:17.771Z,10.40
2022-10-05T04:03:00.499Z,9.10
2022-10-05T04:05:29.153Z,13.20
2022-10-05T04:07:58.452Z,11.68
2022-10-05T04:10:42.955Z,9.48
2022-10-05T04:13:12.316Z,11.30
2022-10-05T04:15:45.471Z,11.00
2022-10-05T04:18:20.692Z,8.43
2022-10-05T04:20:52.038Z,10.30
2022-10-05T04:23:27.888Z,11.65
2022-10-05T04:25:56.044Z,12.05
2022-10-05T04:28:31.040Z,9.15
2022-10-05T04:31:00.194Z,7.38
2022-10-05T04:33:27.253Z,11.98
2022-10-05T04:35:56.478Z,10.45
2022-10-05T04:38:31.900Z,8.32
2022-10-05T04:41:01.187Z,8.60
2022-10-05T04:43:27.404Z,5.57
2022-10-05T04:46:09.810Z,9.77
2022-10-05T04:48:54.733Z,6.47
2022-10-05T04:51:24.058Z,8.68
2022-10-05T04:53:56.265Z,5.22
2022-10-05T04:56:35.779Z,6.18
2022-10-05T04:59:16.907Z,4.80
2022-10-05T05:01:58.968Z,7.63
2022-10-05T05:04:32.157Z,4.75
2022-10-05T05:07:11.819Z,5.72
2022-10-05T05:09:43.917Z,7.25
2022-10-05T05:12:39.914Z,5.05
2022-10-05T05:15:06.136Z,4.90
2022-10-05T05:17:32.332Z,7.30
2022-10-05T05:20:07.856Z,7.07
2022-10-05T05:22:40.329Z,7.25
2022-10-05T05:25:06.597Z,6.93
2022-10-05T05:27:32.796Z,5.20
2022-10-05T05:30:13.965Z,5.90
2022-10-05T05:32:59.153Z,8.15
2022-10-05T05:35:41.878Z,6.75
2022-10-05T05:38:14.145Z,5.82
2022-10-05T05:40:47.288Z,5.15
2022-10-05T05:43:24.762Z,5.60
2022-10-05T05:46:01.313Z,5.07
2022-10-05T05:48:38.343Z,9.85
2022-10-05T05:51:10.589Z,6.90
2022-10-05T05:53:36.792Z,7.43
2022-10-05T05:56:16.530Z,7.40
2022-10-05T05:58:54.909Z,8.85
2022-10-05T06:01:33.352Z,6.03
2022-10-05T06:04:23.196Z,7.95
2022-10-05T06:06:51.877Z,9.20
2022-10-05T06:09:30.243Z,9.35
2022-10-05T06:11:58.429Z,7.10
2022-10-05T06:14:32.187Z,9.95
2022-10-05T06:17:03.779Z,6.57
2022-10-05T06:19:32.225Z,8.43
2022-10-05T06:22:07.610Z,6.68
2022-10-05T06:24:40.387Z,7.63
2022-10-05T06:27:26.238Z,8.80
2022-10-05T06:29:52.432Z,7.18
2022-10-05T06:32:27.495Z,10.20
2022-10-05T06:35:04.499Z,7.90
2022-10-05T06:37:50.621Z,8.23
2022-10-05T06:40:16.831Z,8.38
2022-10-05T06:42:51.271Z,9.00
2022-10-05T06:45:20.371Z,11.35
2022-10-05T06:47:52.882Z,6.15
2022-10-05T06:50:19.324Z,6.25
2022-10-05T06:52:45.523Z,7.07
2022-10-05T06:55:18.281Z,6.07
2022-10-05T06:57:59.359Z,11.02
2022-10-05T07:00:31.961Z,5.30
2022-10-05T07:02:58.219Z,8.77
2022-10-05T07:05:34.783Z,6.35
2022-10-05T07:08:03.689Z,5.60
2022-10-05T07:10:32.298Z,7.68
2022-10-05T07:13:05.959Z,14.02
2022-10-05T07:15:32.179Z,9.63
2022-10-05T07:18:10.432Z,7.32
2022-10-05T07:20:49.068Z,13.85
2022-10-05T07:23:27.649Z,5.22
2022-10-05T07:25:58.596Z,6.70
2022-10-05T07:28:26.400Z,6.38
2022-10-05T07:31:03.685Z,4.40
2022-10-05T07:33:41.957Z,7.95
2022-10-05T07:36:30.070Z,5.80
2022-10-05T07:39:02.215Z,8.38
2022-10-05T07:41:33.323Z,4.95
2022-10-05T07:44:03.428Z,9.60
2022-10-05T07:46:50.053Z,5.38
2022-10-05T07:49:21.457Z,4.30
2022-10-05T07:51:59.472Z,4.03
2022-10-05T07:54:25.736Z,6.57
2022-10-05T07:56:59.825Z,3.95
2022-10-05T07:59:36.105Z,6.00
2022-10-05T08:02:08.075Z,4.65
2022-10-05T08:04:41.591Z,5.97
2022-10-05T08:07:11.220Z,10.13
2022-10-05T08:09:56.470Z,10.68
2022-10-05T08:12:25.748Z,11.55
2022-10-05T08:15:04.354Z,11.85
2022-10-05T08:17:31.790Z,11.98
2022-10-05T08:20:03.070Z,6.25
2022-10-05T08:22:32.204Z,6.68
2022-10-05T08:25:00.094Z,7.40
2022-10-05T08:27:32.987Z,7.88
2022-10-05T08:30:04.299Z,10.48
2022-10-05T08:32:34.878Z,4.45
2022-10-05T08:35:13.751Z,8.60
2022-10-05T08:37:41.531Z,7.43
2022-10-05T08:40:33.851Z,3.85
2022-10-05T08:43:00.052Z,6.68
2022-10-05T08:45:35.637Z,5.78
2022-10-05T08:48:01.896Z,3.95
2022-10-05T08:50:45.310Z,8.05
2022-10-05T08:53:26.656Z,5.25
2022-10-05T08:56:12.898Z,4.90
2022-10-05T08:58:59.104Z,7.72
2022-10-05T09:01:32.532Z,6.15
2022-10-05T09:03:58.783Z,3.75
2022-10-05T09:06:31.531Z,4.00
2022-10-05T09:09:03.107Z,6.25
2022-10-05T09:11:35.479Z,6.00
2022-10-05T09:14:01.699Z,7.13
2022-10-05T09:16:28.026Z,3.67
2022-10-05T09:19:03.284Z,4.30
2022-10-05T09:21:38.433Z,4.07
2022-10-05T09:24:04.639Z,3.38
2022-10-05T09:26:46.352Z,9.07
2022-10-05T09:29:18.762Z,3.55
2022-10-05T09:32:05.298Z,3.42
2022-10-05T09:34:39.586Z,3.33
2022-10-05T09:37:14.752Z,2.97
2022-10-05T09:39:40.945Z,3.00
2022-10-05T09:42:13.154Z,4.15
2022-10-05T09:45:02.690Z,3.55
2022-10-05T09:47:35.165Z,6.85
2022-10-05T09:50:20.640Z,4.03
2022-10-05T09:53:05.339Z,4.10
2022-10-05T09:55:50.507Z,5.82
2022-10-05T09:58:16.702Z,5.20
2022-10-05T10:00:55.624Z,3.47
2022-10-05T10:03:48.835Z,4.68
2022-10-05T10:06:18.118Z,4.45
2022-10-05T10:08:44.391Z,7.82
2022-10-05T10:11:16.833Z,4.43
2022-10-05T10:13:52.001Z,6.90
2022-10-05T10:16:23.317Z,4.03
2022-10-05T10:19:12.416Z,5.38
2022-10-05T10:21:57.243Z,3.83
2022-10-05T10:24:41.047Z,3.40
2022-10-05T10:27:16.258Z,4.38
2022-10-05T10:29:42.447Z,4.00
2022-10-05T10:32:18.236Z,4.47
2022-10-05T10:34:44.439Z,7.20
2022-10-05T10:37:22.920Z,6.63
2022-10-05T10:39:58.119Z,5.03
2022-10-05T10:42:26.174Z,5.63
2022-10-05T10:44:59.683Z,11.02
2022-10-05T10:47:38.095Z,9.05
2022-10-05T10:50:07.426Z,4.80
2022-10-05T10:52:53.621Z,10.90
2022-10-05T10:55:19.864Z,15.85
2022-10-05T10:58:04.817Z,9.90
2022-10-05T11:00:40.742Z,3.70
2022-10-05T11:03:28.731Z,4.15
2022-10-05T11:06:13.842Z,8.13
2022-10-05T11:08:55.224Z,6.80
2022-10-05T11:11:40.020Z,3.30
2022-10-05T11:14:15.475Z,6.47
2022-10-05T11:16:44.819Z,3.35
2022-10-05T11:19:16.448Z,5.20
2022-10-05T11:21:45.619Z,4.38
2022-10-05T11:24:24.271Z,5.10
2022-10-05T11:26:56.615Z,3.28
2022-10-05T11:29:31.693Z,3.85
2022-10-05T11:32:00.969Z,11.32
2022-10-05T11:34:42.264Z,5.68
2022-10-05T11:37:15.794Z,7.63
2022-10-05T11:39:43.508Z,3.92
2022-10-05T11:42:32.544Z,10.00
2022-10-05T11:44:59.587Z,6.38
2022-10-05T11:47:31.553Z,4.75
2022-10-05T11:50:18.061Z,6.13
2022-10-05T11:53:07.343Z,3.53
2022-10-05T11:55:33.535Z,5.07
2022-10-05T11:58:07.471Z,4.75
2022-10-05T12:00:40.512Z,4.80
2022-10-05T12:03:07.107Z,6.60
2022-10-05T12:05:45.411Z,4.85
2022-10-05T12:08:23.818Z,5.45
2022-10-05T12:11:08.911Z,2.75
2022-10-05T12:13:51.367Z,4.78
2022-10-05T12:16:35.735Z,2.75
2022-10-05T12:19:05.145Z,4.72
2022-10-05T12:21:44.194Z,3.25
2022-10-05T12:24:42.732Z,6.90
2022-10-05T12:27:15.285Z,4.30
2022-10-05T12:29:44.097Z,2.25
2022-10-05T12:32:17.386Z,6.93
2022-10-05T12:34:52.345Z,4.13
2022-10-05T12:37:18.566Z,3.22
2022-10-05T12:39:51.313Z,2.60
2022-10-05T12:42:26.343Z,4.50
2022-10-05T12:44:52.538Z,2.63
2022-10-05T12:47:18.801Z,9.80
2022-10-05T12:50:03.437Z,8.43
2022-10-05T12:52:32.686Z,6.70
2022-10-05T12:55:21.632Z,5.60
2022-10-05T12:57:57.552Z,6.32
2022-10-05T13:00:24.210Z,5.30
2022-10-05T13:02:54.738Z,6.07
2022-10-05T13:07:47.371Z,3.20
2022-10-05T13:10:29.035Z,3.40
2022-10-05T13:13:02.422Z,3.33
2022-10-05T13:15:31.251Z,2.75
2022-10-05T13:17:57.452Z,3.63
2022-10-05T13:20:32.383Z,4.63
2022-10-05T13:22:58.581Z,4.22
2022-10-05T13:25:33.954Z,7.90
2022-10-05T13:28:16.587Z,3.83
2022-10-05T13:30:49.848Z,4.97
2022-10-05T13:33:20.231Z,3.40
2022-10-05T13:35:52.140Z,3.90
2022-10-05T13:38:28.126Z,7.05
2022-10-05T13:41:06.627Z,2.75
2022-10-05T13:43:55.572Z,3.42
2022-10-05T13:46:46.417Z,4.95
2022-10-05T13:49:12.632Z,6.30
2022-10-05T13:51:41.549Z,3.17
2022-10-05T13:54:15.256Z,5.93
2022-10-05T13:56:45.998Z,7.95
2022-10-05T13:59:30.837Z,2.70
2022-10-05T14:01:59.018Z,2.60
2022-10-05T14:04:29.825Z,3.58
2022-10-05T14:06:56.095Z,4.60
2022-10-05T14:09:30.047Z,3.08
2022-10-05T14:11:56.231Z,5.82
2022-10-05T14:14:28.105Z,5.70
2022-10-05T14:16:56.082Z,4.05
2022-10-05T14:19:41.909Z,4.53
2022-10-05T14:22:12.520Z,4.20
2022-10-05T14:24:47.386Z,4.07
2022-10-05T14:27:19.730Z,10.68
2022-10-05T14:29:52.103Z,10.02
2022-10-05T14:32:22.583Z,2.40
2022-10-05T14:35:05.165Z,6.82
2022-10-05T14:37:32.754Z,3.17
2022-10-05T14:40:03.360Z,5.60
2022-10-05T14:42:44.913Z,4.57
2022-10-05T14:45:14.436Z,6.07
2022-10-05T14:47:49.616Z,2.78
2022-10-05T14:50:29.736Z,3.55
2022-10-05T14:53:10.971Z,2.67
2022-10-05T14:55:55.699Z,2.80
2022-10-05T14:58:25.103Z,5.05
2022-10-05T15:01:13.555Z,7.88
2022-10-05T15:03:50.969Z,2.65
2022-10-05T15:06:29.803Z,1.73
2022-10-05T15:09:16.405Z,2.08
2022-10-05T15:11:50.739Z,4.85
2022-10-05T15:14:19.752Z,10.52
2022-10-05T15:16:49.502Z,2.95
2022-10-05T15:19:20.785Z,8.57
2022-10-05T15:21:50.007Z,4.65
2022-10-05T15:24:20.099Z,2.88
2022-10-05T15:26:50.458Z,5.72
2022-10-05T15:29:19.507Z,6.22
2022-10-05T15:31:59.604Z,2.47
2022-10-05T15:34:56.511Z,5.68
2022-10-05T15:37:31.890Z,4.22
2022-10-05T15:39:59.723Z,2.50
2022-10-05T15:42:34.546Z,4.85
2022-10-05T15:45:16.623Z,2.85
2022-10-05T15:47:45.639Z,6.60
2022-10-05T15:50:24.293Z,3.08
2022-10-05T15:52:54.075Z,6.32
2022-10-05T15:55:20.264Z,6.83
2022-10-05T15:58:07.961Z,4.00
2022-10-05T16:00:54.484Z,1.88
2022-10-05T16:03:23.732Z,4.85
2022-10-05T16:06:27.031Z,3.17
2022-10-05T16:09:11.697Z,2.55
2022-10-05T16:11:58.418Z,7.43
2022-10-05T16:14:30.914Z,2.85
2022-10-05T16:17:09.254Z,1.50
2022-10-05T16:19:35.581Z,10.50
2022-10-05T16:22:21.606Z,2.95
2022-10-05T16:24:51.551Z,3.58
2022-10-05T16:27:20.818Z,3.60
2022-10-05T16:30:08.719Z,5.70
2022-10-05T16:32:44.228Z,5.75
2022-10-05T16:35:21.571Z,6.55
2022-10-05T16:37:52.661Z,2.53
2022-10-05T16:40:31.082Z,3.95
2022-10-05T16:43:04.601Z,3.78
2022-10-05T16:45:45.143Z,5.38
2022-10-05T16:48:22.452Z,3.17
2022-10-05T16:51:07.569Z,3.85
2022-10-05T16:53:37.129Z,7.13
2022-10-05T16:56:05.952Z,6.65
2022-10-05T16:58:32.129Z,5.30
2022-10-05T17:01:10.598Z,4.18
2022-10-05T17:03:39.919Z,7.72
2022-10-05T17:06:14.301Z,3.35
2022-10-05T17:08:52.735Z,1.70
2022-10-05T17:11:18.922Z,2.85
2022-10-05T17:13:57.396Z,10.63
2022-10-05T17:16:56.218Z,4.50
2022-10-05T17:19:43.527Z,4.88
2022-10-05T17:22:18.959Z,6.47
2022-10-05T17:24:48.211Z,2.08
2022-10-05T17:27:32.384Z,2.47
2022-10-05T17:30:17.620Z,2.35
2022-10-05T17:32:58.041Z,4.10
2022-10-05T17:35:44.531Z,4.25
2022-10-05T17:38:20.035Z,4.82
2022-10-05T17:41:06.180Z,5.25
2022-10-05T17:43:33.120Z,3.10
2022-10-05T17:46:06.780Z,4.07
2022-10-05T17:48:39.201Z,7.28
2022-10-05T17:51:53.034Z,5.03
2022-10-05T17:54:37.876Z,2.65
2022-10-05T17:57:04.534Z,3.83
2022-10-05T17:59:46.150Z,5.82
2022-10-05T18:02:16.089Z,4.82
2022-10-05T18:04:48.968Z,1.80
2022-10-05T18:07:19.472Z,5.40
2022-10-05T18:09:56.147Z,4.18
2022-10-05T18:12:24.137Z,3.70
2022-10-05T18:15:05.571Z,3.40
2022-10-05T18:17:44.982Z,1.92
2022-10-05T18:20:14.694Z,4.38
2022-10-05T18:22:43.917Z,2.07
2022-10-05T18:25:18.367Z,5.22
2022-10-05T18:28:14.078Z,2.05
2022-10-05T18:30:53.133Z,2.90
2022-10-05T18:33:29.777Z,3.55
2022-10-05T18:36:03.243Z,6.05
2022-10-05T18:38:41.825Z,4.03
2022-10-05T18:41:17.386Z,6.22
2022-10-05T18:43:48.716Z,5.72
2022-10-05T18:46:21.849Z,3.60
2022-10-05T18:49:06.725Z,3.92
2022-10-05T18:51:48.382Z,4.30
2022-10-05T18:54:33.019Z,3.03
2022-10-05T18:57:00.826Z,5.32
2022-10-05T18:59:27.027Z,2.50
2022-10-05T19:02:01.754Z,1.90
2022-10-05T19:04:34.886Z,4.50
2022-10-05T19:07:16.266Z,2.55
2022-10-05T19:09:45.448Z,3.72
2022-10-05T19:12:31.037Z,4.70
2022-10-05T19:15:02.895Z,3.97
2022-10-05T19:17:32.239Z,3.40
2022-10-05T19:20:21.835Z,3.30
2022-10-05T19:23:09.370Z,6.38
2022-10-05T19:25:46.164Z,3.30
2022-10-05T19:28:24.578Z,3.20
2022-10-05T19:30:59.280Z,2.50
2022-10-05T19:33:37.455Z,5.15
2022-10-05T19:36:15.668Z,3.58
2022-10-05T19:38:52.429Z,9.40
2022-10-05T19:41:22.591Z,2.67
2022-10-05T19:44:05.430Z,2.85
2022-10-05T19:46:36.349Z,3.00
2022-10-05T19:49:02.692Z,2.33
2022-10-05T19:51:32.942Z,5.57
2022-10-05T19:54:08.826Z,4.28
2022-10-05T19:56:45.626Z,4.90
2022-10-05T19:59:17.150Z,3.75
2022-10-05T20:01:47.537Z,4.75
2022-10-05T20:04:16.240Z,0.98
2022-10-05T20:06:42.465Z,0.60
2022-10-05T20:09:19.165Z,2.97
2022-10-05T20:11:48.672Z,1.00
2022-10-05T20:14:14.865Z,2.58
2022-10-05T20:16:59.579Z,0.52
2022-10-05T20:19:34.769Z,1.58
2022-10-05T20:22:20.951Z,3.25
2022-10-05T20:24:51.376Z,1.70
2022-10-05T20:27:36.511Z,1.52
2022-10-05T20:30:03.121Z,0.95
2022-10-05T20:32:30.838Z,1.33
2022-10-05T20:34:57.244Z,2.58
2022-10-05T20:37:23.944Z,1.48
2022-10-05T20:39:53.382Z,3.10
2022-10-05T20:42:20.597Z,2.88
2022-10-05T20:44:47.099Z,2.45
2022-10-05T20:47:13.742Z,1.85
2022-10-05T20:49:44.440Z,3.55
2022-10-05T20:54:37.975Z,3.60
2022-10-05T20:57:06.122Z,2.40
2022-10-05T20:59:32.963Z,6.60
2022-10-05T21:01:59.377Z,5.20
2022-10-05T21:04:30.207Z,3.95
2022-10-05T21:07:01.015Z,3.53
2022-10-05T21:09:27.267Z,3.58
2022-10-05T21:11:55.618Z,2.47
2022-10-05T21:14:23.285Z,3.95
2022-10-05T21:16:50.146Z,5.15
2022-10-05T21:19:16.704Z,2.65
2022-10-05T21:21:44.103Z,3.72
2022-10-05T21:24:13.638Z,4.97
2022-10-05T21:26:41.406Z,4.95
2022-10-05T21:29:12.322Z,4.47
2022-10-05T21:31:39.746Z,6.95
2022-10-05T21:34:06.079Z,3.03
2022-10-05T21:36:32.716Z,1.40
2022-10-05T21:38:59.021Z,1.67
2022-10-05T21:41:25.248Z,5.00
2022-10-05T21:43:51.488Z,2.90
2022-10-05T21:46:22.717Z,1.05
2022-10-05T21:48:49.511Z,2.15
2022-10-05T21:51:17.100Z,5.90
2022-10-05T21:53:47.304Z,1.77
2022-10-05T21:56:15.875Z,2.15
2022-10-05T21:58:42.929Z,0.73
2022-10-05T22:01:09.212Z,0.82
2022-10-05T22:03:35.488Z,1.42
2022-10-05T22:06:03.558Z,2.05
2022-10-05T22:08:31.032Z,5.43
2022-10-05T22:10:57.812Z,2.47
2022-10-05T22:13:25.859Z,2.25
2022-10-05T22:15:52.958Z,3.08
2022-10-05T22:18:19.170Z,1.65
2022-10-05T22:20:45.543Z,2.47
2022-10-05T22:23:12.060Z,3.80
2022-10-05T22:25:39.121Z,2.50
2022-10-05T22:28:07.928Z,2.60
2022-10-05T22:30:34.606Z,1.95
2022-10-05T22:33:00.824Z,4.35
2022-10-05T22:35:27.382Z,4.80
2022-10-05T22:37:53.603Z,3.90
2022-10-05T22:40:19.837Z,7.10
2022-10-05T22:42:46.138Z,7.97
2022-10-05T22:45:14.065Z,4.80
2022-10-05T22:47:41.322Z,5.60
2022-10-05T22:50:08.104Z,4.05
2022-10-05T22:52:34.304Z,6.70
2022-10-05T22:55:00.544Z,7.35
2022-10-05T22:57:26.806Z,6.65
2022-10-05T22:59:53.032Z,6.88
2022-10-05T23:02:19.837Z,6.40
2022-10-05T23:04:46.407Z,2.45
2022-10-05T23:07:12.647Z,6.47
2022-10-05T23:09:38.898Z,5.32
2022-10-05T23:12:05.497Z,10.35
2022-10-05T23:14:33.146Z,6.82
2022-10-05T23:16:59.456Z,8.63
2022-10-05T23:19:25.811Z,2.42
2022-10-05T23:21:52.053Z,6.22
2022-10-05T23:24:18.290Z,6.43
2022-10-05T23:26:44.506Z,4.55
2022-10-05T23:29:11.294Z,11.07
2022-10-05T23:31:37.552Z,5.43
2022-10-05T23:34:03.843Z,9.77
2022-10-05T23:36:33.217Z,7.35
2022-10-05T23:38:59.967Z,13.48
2022-10-05T23:41:26.250Z,11.40
2022-10-05T23:43:54.633Z,6.55
2022-10-05T23:46:20.937Z,5.35
2022-10-05T23:48:47.244Z,7.88
2022-10-05T23:51:14.443Z,7.82
2022-10-05T23:53:40.697Z,4.60
2022-10-05T23:56:07.070Z,6.80
2022-10-05T23:58:33.332Z,10.63
